Time;durP1;ratioP1;P1;durP2;ratioP2;P2;SDS_P1;SDS_P2;PMS_P1;PMS_P2;Temp;Humidity;BMP_temperature;BMP_pressure;BME280_temperature;BME280_humidity;BME280_pressure;Samples;Min_cycle;Max_cycle;Signal;HPM_P1;HPM_P2
2021/11/13 00:00:45;;;;;;;29.27;21.98;;;;;;;15.40;26.88;94866.44;5075778;28;20447;-58
2021/11/13 00:03:13;;;;;;;31.63;22.80;;;;;;;15.11;27.50;94874.84;5075395;28;20056;-57
2021/11/13 00:05:42;;;;;;;33.03;22.60;;;;;;;15.25;27.15;94874.75;5075622;28;20048;-59
2021/11/13 00:08:09;;;;;;;34.25;24.92;;;;;;;15.45;26.52;94876.06;5075433;28;20811;-56
2021/11/13 00:10:38;;;;;;;31.55;23.77;;;;;;;15.20;27.24;94875.66;5075601;28;20059;-58
2021/11/13 00:13:08;;;;;;;34.15;24.55;;;;;;;15.83;25.92;94873.75;5075213;28;20740;-59
2021/11/13 00:15:37;;;;;;;38.88;25.85;;;;;;;15.86;25.76;94886.31;5048791;28;20048;-60
2021/11/13 00:18:05;;;;;;;38.75;27.73;;;;;;;15.89;25.65;94877.81;5058710;28;20056;-63
2021/11/13 00:20:32;;;;;;;32.83;24.48;;;;;;;15.89;25.53;94886.50;5075317;28;20044;-60
2021/11/13 00:22:59;;;;;;;28.42;22.13;;;;;;;16.70;24.03;94879.94;5063134;28;20052;-59
2021/11/13 00:25:27;;;;;;;25.70;20.65;;;;;;;18.05;22.15;94880.91;5063674;28;20052;-59
2021/11/13 00:27:54;;;;;;;27.35;20.52;;;;;;;18.54;21.48;94883.09;5058063;28;20045;-59
2021/11/13 00:30:21;;;;;;;27.35;20.30;;;;;;;17.18;23.31;94885.75;5055186;28;20044;-57
2021/11/13 00:32:49;;;;;;;33.25;22.95;;;;;;;15.85;25.61;94884.75;5054283;28;20044;-58
2021/11/13 00:35:16;;;;;;;29.40;22.63;;;;;;;15.85;25.74;94887.38;5055252;28;20468;-55
2021/11/13 00:37:43;;;;;;;27.20;20.48;;;;;;;15.40;26.11;94883.03;5070191;28;20109;-59
2021/11/13 00:40:14;;;;;;;27.08;19.30;;;;;;;15.60;25.94;94886.22;5063438;28;20076;-61
2021/11/13 00:42:42;;;;;;;27.33;19.08;;;;;;;15.19;26.60;94882.00;5054847;28;20746;-58
2021/11/13 00:45:10;;;;;;;27.45;18.45;;;;;;;15.37;26.20;94880.22;5059762;28;20075;-59
2021/11/13 00:47:37;;;;;;;25.38;19.00;;;;;;;16.06;25.11;94882.31;5073808;28;20067;-61
2021/11/13 00:50:06;;;;;;;25.77;18.48;;;;;;;16.15;25.06;94883.91;5074087;28;20051;-58
2021/11/13 00:52:37;;;;;;;27.40;18.83;;;;;;;16.03;25.34;94873.94;5062447;28;20325;-59
2021/11/13 00:55:04;;;;;;;24.33;18.30;;;;;;;15.83;25.77;94884.28;5046719;28;20053;-56
2021/11/13 00:57:32;;;;;;;25.77;18.23;;;;;;;15.74;25.77;94876.38;5067948;28;20051;-60
2021/11/13 00:59:59;;;;;;;22.13;17.75;;;;;;;16.00;25.18;94869.28;5074495;28;20056;-58
2021/11/13 01:02:26;;;;;;;23.08;18.05;;;;;;;15.46;26.11;94872.34;5073744;28;20051;-56
2021/11/13 01:04:53;;;;;;;21.60;17.75;;;;;;;15.65;25.75;94868.44;5054446;28;20053;-59
2021/11/13 01:07:20;;;;;;;23.00;17.13;;;;;;;15.65;26.03;94865.03;5065934;28;20052;-56
2021/11/13 01:09:47;;;;;;;22.98;16.92;;;;;;;15.94;25.49;94869.75;5073556;28;20049;-61
2021/11/13 01:12:14;;;;;;;24.13;17.63;;;;;;;15.78;25.70;94868.63;5074177;28;20049;-58
2021/11/13 01:14:41;;;;;;;26.85;18.13;;;;;;;15.19;26.80;94871.47;5064607;28;20068;-58
2021/11/13 01:17:13;;;;;;;25.33;17.27;;;;;;;15.11;26.70;94864.31;5083171;28;20063;-55
2021/11/13 01:19:43;;;;;;;23.58;17.83;;;;;;;15.16;26.84;94861.53;5086643;28;20049;-57
2021/11/13 01:22:10;;;;;;;24.45;17.65;;;;;;;15.07;27.08;94860.69;5054139;28;20053;-59
2021/11/13 01:24:38;;;;;;;24.23;17.17;;;;;;;14.76;27.61;94879.88;5054397;28;20048;-60
2021/11/13 01:27:06;;;;;;;25.08;17.38;;;;;;;15.04;26.92;94863.94;5063197;28;20048;-61
2021/11/13 01:29:33;;;;;;;26.50;18.00;;;;;;;14.63;27.58;94870.19;5092778;28;20358;-59
2021/11/13 01:32:00;;;;;;;24.55;18.02;;;;;;;14.70;27.47;94870.53;5094122;28;20059;-59
2021/11/13 01:34:30;;;;;;;23.70;16.92;;;;;;;15.39;26.31;94867.53;5093627;28;20055;-63
2021/11/13 01:36:57;;;;;;;25.13;17.73;;;;;;;14.90;27.09;94864.03;5086148;28;20374;-60
2021/11/13 01:39:24;;;;;;;23.20;17.00;;;;;;;15.22;26.82;94865.59;5073712;28;20427;-58
2021/11/13 01:41:54;;;;;;;23.73;17.83;;;;;;;14.96;27.00;94854.13;5073843;28;20052;-62
2021/11/13 01:44:22;;;;;;;26.55;18.70;;;;;;;14.89;27.20;94857.22;5042255;28;20057;-62
2021/11/13 01:46:49;;;;;;;25.15;17.77;;;;;;;15.05;26.78;94854.97;5053382;28;20060;-62
2021/11/13 01:49:16;;;;;;;23.20;17.45;;;;;;;15.28;26.67;94858.31;5072699;28;20040;-57
2021/11/13 01:51:46;;;;;;;26.48;18.50;;;;;;;14.73;27.39;94854.16;5073599;28;20056;-63
2021/11/13 01:54:13;;;;;;;24.60;18.10;;;;;;;14.96;27.11;94852.28;5072967;28;20063;-61
2021/11/13 01:56:40;;;;;;;24.23;18.48;;;;;;;15.28;26.37;94853.84;5073307;28;20056;-56
2021/11/13 01:59:10;;;;;;;26.88;18.00;;;;;;;15.35;26.39;94843.66;5072525;28;20048;-61
2021/11/13 02:01:37;;;;;;;23.25;18.73;;;;;;;15.10;27.17;94842.47;5073747;28;20048;-54
2021/11/13 02:04:05;;;;;;;24.25;18.92;;;;;;;14.99;27.05;94850.91;5073149;28;20051;-57
2021/11/13 02:06:34;;;;;;;24.25;18.48;;;;;;;14.81;27.51;94845.53;5073523;28;20051;-63
2021/11/13 02:09:02;;;;;;;22.50;18.27;;;;;;;15.30;26.86;94851.66;5073516;28;20052;-60
2021/11/13 02:11:29;;;;;;;27.60;19.08;;;;;;;14.70;27.74;94849.50;5073678;28;20100;-60
2021/11/13 02:14:03;;;;;;;27.58;19.45;;;;;;;14.80;27.57;94841.34;5064353;28;20440;-61
2021/11/13 02:16:30;;;;;;;25.25;19.60;;;;;;;15.13;27.28;94846.34;5048952;28;20068;-60
2021/11/13 02:18:57;;;;;;;25.27;19.20;;;;;;;15.18;26.91;94854.09;5072570;28;20052;-64
2021/11/13 02:21:26;;;;;;;27.83;19.35;;;;;;;15.26;26.88;94845.47;5074136;28;20048;-62
2021/11/13 02:23:54;;;;;;;23.15;18.60;;;;;;;14.91;27.36;94859.53;5077399;28;20051;-60
2021/11/13 02:26:22;;;;;;;29.33;19.30;;;;;;;15.08;27.09;94844.59;5077278;28;20051;-62
2021/11/13 02:28:54;;;;;;;23.58;18.75;;;;;;;14.88;27.33;94852.25;5077237;28;20048;-62
2021/11/13 02:31:35;;;;;;;24.15;18.75;;;;;;;14.64;27.93;94850.69;5077483;28;20079;-63
2021/11/13 02:34:07;;;;;;;25.08;18.73;;;;;;;14.54;28.17;94850.91;5069007;28;20447;-62
2021/11/13 02:36:34;;;;;;;24.25;18.25;;;;;;;14.56;27.94;94843.50;5076300;28;20059;-62
2021/11/13 02:39:06;;;;;;;22.17;18.27;;;;;;;14.62;27.95;94844.97;5076978;28;20450;-64
2021/11/13 02:41:34;;;;;;;27.55;18.70;;;;;;;14.73;27.52;94846.25;5077132;28;20063;-64
2021/11/13 02:44:03;;;;;;;24.73;18.45;;;;;;;14.34;27.95;94848.75;5072917;28;20179;-64
2021/11/13 02:46:32;;;;;;;27.17;20.00;;;;;;;14.57;27.66;94845.06;5054654;28;20056;-62
2021/11/13 02:49:01;;;;;;;28.30;18.27;;;;;;;14.01;28.69;94859.41;5092144;28;20040;-60
2021/11/13 02:51:28;;;;;;;23.42;17.77;;;;;;;13.71;29.18;94845.06;5076422;28;20059;-62
2021/11/13 02:53:56;;;;;;;29.38;20.17;;;;;;;13.58;29.49;94857.16;5061610;28;20049;-60
2021/11/13 02:56:23;;;;;;;28.67;21.90;;;;;;;14.04;28.58;94853.56;5072132;28;20044;-57
2021/11/13 02:58:50;;;;;;;34.30;22.98;;;;;;;14.30;28.28;94850.38;5076892;28;20059;-55
2021/11/13 03:01:22;;;;;;;37.78;23.92;;;;;;;14.69;27.63;94855.84;5079117;28;20048;-56
2021/11/13 03:03:55;;;;;;;37.65;24.63;;;;;;;14.49;27.75;94853.66;5067546;28;20067;-63
2021/11/13 03:06:23;;;;;;;35.78;25.48;;;;;;;14.92;27.25;94850.56;5060735;28;20045;-62
2021/11/13 03:08:52;;;;;;;38.65;26.65;;;;;;;15.11;27.49;94856.41;5076794;28;20059;-62
2021/11/13 03:11:19;;;;;;;36.85;23.92;;;;;;;14.18;28.23;94858.81;5076410;28;20041;-64
2021/11/13 03:13:49;;;;;;;35.05;24.13;;;;;;;13.96;28.51;94861.38;5073429;28;20056;-61
2021/11/13 03:16:17;;;;;;;32.22;21.92;;;;;;;14.02;28.32;94863.59;5070100;28;20065;-63
2021/11/13 03:18:45;;;;;;;31.83;23.15;;;;;;;14.45;27.83;94863.25;5076498;28;20059;-62
2021/11/13 03:21:13;;;;;;;35.20;23.80;;;;;;;14.11;28.69;94859.22;5077827;28;20051;-54
2021/11/13 03:23:42;;;;;;;36.17;24.83;;;;;;;13.84;28.90;94861.91;5096894;28;20062;-60
2021/11/13 03:26:13;;;;;;;32.42;23.35;;;;;;;13.91;28.68;94859.66;5058546;28;20052;-63
2021/11/13 03:28:44;;;;;;;34.20;22.42;;;;;;;13.89;28.85;94851.28;5077154;28;20052;-61
2021/11/13 03:31:11;;;;;;;33.42;23.45;;;;;;;14.06;28.21;94861.97;5075159;28;20048;-63
2021/11/13 03:33:40;;;;;;;36.42;23.67;;;;;;;14.41;28.17;94859.63;5075631;28;20079;-57
2021/11/13 03:36:08;;;;;;;31.50;22.65;;;;;;;14.04;28.58;94858.81;5076221;28;20055;-59
2021/11/13 03:38:37;;;;;;;36.30;23.85;;;;;;;14.41;28.05;94862.25;5076080;28;20090;-59
2021/11/13 03:41:04;;;;;;;29.55;21.40;;;;;;;14.29;28.40;94864.63;5058721;28;20045;-62
2021/11/13 03:43:34;;;;;;;33.42;22.48;;;;;;;14.37;28.06;94871.81;5056072;28;20047;-62
2021/11/13 03:46:01;;;;;;;31.75;22.30;;;;;;;14.16;28.41;94863.59;5067636;28;20064;-58
2021/11/13 03:48:29;;;;;;;32.97;23.13;;;;;;;13.81;28.97;94862.50;5056044;28;20057;-58
2021/11/13 03:50:56;;;;;;;35.53;23.42;;;;;;;14.06;28.64;94867.22;5056050;28;20052;-57
2021/11/13 03:53:23;;;;;;;41.33;28.15;;;;;;;14.27;28.64;94866.75;5074754;28;20040;-57
2021/11/13 03:55:50;;;;;;;39.83;27.13;;;;;;;14.80;27.68;94866.88;5068026;28;20057;-59
2021/11/13 03:58:17;;;;;;;38.25;26.90;;;;;;;14.48;28.07;94862.63;5073988;28;20044;-57
2021/11/13 04:00:45;;;;;;;33.15;23.45;;;;;;;14.06;28.05;94861.97;5075966;28;20332;-57
2021/11/13 04:03:12;;;;;;;30.70;23.63;;;;;;;13.86;28.88;94870.28;5075227;28;20053;-57
2021/11/13 04:05:39;;;;;;;34.40;24.35;;;;;;;14.13;28.42;94864.19;5075682;28;20366;-61
2021/11/13 04:08:06;;;;;;;30.83;22.77;;;;;;;14.30;27.92;94872.22;5075438;28;20056;-60
2021/11/13 04:10:33;;;;;;;31.00;23.02;;;;;;;14.12;28.17;94868.66;5075580;28;20045;-61
2021/11/13 04:13:01;;;;;;;37.88;27.58;;;;;;;13.63;29.16;94876.50;5072285;28;20060;-59
2021/11/13 04:15:28;;;;;;;36.90;25.13;;;;;;;13.74;28.93;94864.72;5063044;28;20490;-63
2021/11/13 04:17:56;;;;;;;38.65;24.60;;;;;;;13.58;29.29;94878.16;5074979;28;20053;-59
2021/11/13 04:20:23;;;;;;;39.63;26.63;;;;;;;13.76;29.05;94859.94;5074674;28;20048;-59
2021/11/13 04:22:50;;;;;;;36.95;24.92;;;;;;;13.73;29.03;94860.53;5075046;28;20048;-56
2021/11/13 04:25:19;;;;;;;39.00;24.88;;;;;;;13.66;29.29;94862.78;5074770;28;20059;-57
2021/11/13 04:27:50;;;;;;;39.07;26.20;;;;;;;13.56;28.97;94866.41;5073803;28;20055;-58
2021/11/13 04:30:18;;;;;;;51.25;35.97;;;;;;;13.72;28.78;94856.34;5075302;28;20075;-61
2021/11/13 04:32:47;;;;;;;50.53;33.88;;;;;;;13.65;29.13;94869.88;5090335;28;20053;-59
2021/11/13 04:35:24;;;;;;;44.00;30.35;;;;;;;13.35;29.49;94868.63;5072662;28;20041;-59
2021/11/13 04:37:57;;;;;;;42.08;29.00;;;;;;;13.64;28.94;94870.19;5068291;28;20048;-57
2021/11/13 04:40:29;;;;;;;;;;;;;;;13.54;29.38;94871.94;5074318;28;20052;-64
2021/11/13 04:42:56;;;;;;;38.13;25.02;;;;;;;13.95;28.82;94870.34;5074571;28;19919;-64
2021/11/13 04:45:24;;;;;;;41.65;26.02;;;;;;;13.82;28.93;94874.56;5065798;28;20060;-63
2021/11/13 04:47:51;;;;;;;37.97;24.17;;;;;;;13.57;29.27;94881.88;5074628;28;20057;-61
2021/11/13 04:50:24;;;;;;;35.08;23.52;;;;;;;13.72;28.88;94877.38;5074018;28;20055;-63
2021/11/13 04:52:52;;;;;;;35.60;23.30;;;;;;;13.34;29.50;94888.06;5074443;28;20044;-60
2021/11/13 04:55:20;;;;;;;35.00;23.92;;;;;;;13.27;29.61;94887.66;5074308;28;20048;-63
2021/11/13 04:57:48;;;;;;;42.03;24.65;;;;;;;13.44;29.59;94880.00;5078110;28;20044;-61
2021/11/13 05:00:21;;;;;;;32.60;23.05;;;;;;;13.16;30.14;94886.25;5054519;28;20053;-62
2021/11/13 05:02:48;;;;;;;33.20;23.05;;;;;;;13.33;29.62;94888.38;5077951;28;20052;-60
2021/11/13 05:05:15;;;;;;;41.03;25.88;;;;;;;13.69;29.10;94891.09;5094258;28;20059;-60
2021/11/13 05:07:42;;;;;;;41.95;25.45;;;;;;;13.71;29.31;94891.56;5082951;28;20055;-58
2021/11/13 05:10:10;;;;;;;36.13;23.80;;;;;;;13.46;29.30;94891.00;5074590;28;20044;-59
2021/11/13 05:12:38;;;;;;;38.17;25.08;;;;;;;12.95;30.45;94880.56;5056509;28;20048;-60
2021/11/13 05:15:06;;;;;;;35.15;24.65;;;;;;;13.15;29.67;94895.19;5052520;28;20505;-61
2021/11/13 05:17:34;;;;;;;112.65;53.63;;;;;;;13.70;29.44;94895.28;5061713;28;20048;-60
2021/11/13 05:20:11;;;;;;;69.03;39.40;;;;;;;13.97;28.49;94884.75;5074137;28;20053;-60
2021/11/13 05:22:40;;;;;;;49.80;33.25;;;;;;;13.90;29.01;94884.38;5073749;28;20114;-61
2021/11/13 05:25:12;;;;;;;56.78;35.03;;;;;;;13.98;28.39;94891.56;5059175;28;20044;-60
2021/11/13 05:27:39;;;;;;;60.60;35.42;;;;;;;13.91;28.64;94893.03;5064132;28;20044;-62
2021/11/13 05:30:10;;;;;;;60.15;35.92;;;;;;;13.89;28.62;94888.06;5074087;28;20067;-60
2021/11/13 05:32:38;;;;;;;42.85;30.05;;;;;;;15.05;27.42;94894.44;5073116;28;20044;-66
2021/11/13 05:35:05;;;;;;;42.63;30.63;;;;;;;15.04;27.03;94890.25;5054160;28;20052;-57
2021/11/13 05:37:33;;;;;;;39.42;28.88;;;;;;;15.03;27.53;94896.59;5062910;28;20048;-61
2021/11/13 05:40:00;;;;;;;35.45;26.48;;;;;;;15.32;27.07;94889.03;5062702;28;20060;-60
2021/11/13 05:42:27;;;;;;;38.67;28.63;;;;;;;14.58;27.94;94899.25;5053868;28;20048;-58
2021/11/13 05:44:54;;;;;;;39.47;28.20;;;;;;;14.24;28.77;94904.94;5057472;28;20057;-58
2021/11/13 05:47:21;;;;;;;43.45;28.83;;;;;;;14.66;28.27;94911.69;5055640;28;20052;-59
2021/11/13 05:49:49;;;;;;;43.42;28.52;;;;;;;14.78;28.04;94919.81;5073657;28;20045;-59
2021/11/13 05:52:16;;;;;;;46.55;28.50;;;;;;;15.05;27.79;94918.94;5073849;28;20066;-59
2021/11/13 05:54:43;;;;;;;41.90;29.10;;;;;;;14.09;29.69;94913.97;5073695;28;20048;-58
2021/11/13 05:57:10;;;;;;;40.88;28.27;;;;;;;13.86;30.05;94920.19;5073210;28;20055;-59
2021/11/13 05:59:37;;;;;;;43.33;30.60;;;;;;;13.99;29.52;94914.13;5059549;28;20049;-57
2021/11/13 06:02:04;;;;;;;45.30;30.45;;;;;;;14.07;29.90;94918.72;5045698;28;20057;-59
2021/11/13 06:04:32;;;;;;;43.58;30.00;;;;;;;14.15;29.51;94918.03;5068489;28;20367;-57
2021/11/13 06:06:59;;;;;;;40.10;29.67;;;;;;;14.55;29.06;94925.38;5073531;28;20045;-60
2021/11/13 06:09:27;;;;;;;43.25;29.15;;;;;;;14.50;29.33;94918.38;5073837;28;20040;-58
2021/11/13 06:11:55;;;;;;;37.80;29.20;;;;;;;14.57;30.06;94926.63;5073483;28;20056;-59
2021/11/13 06:14:22;;;;;;;40.67;30.45;;;;;;;14.81;29.66;94929.75;5066147;28;20045;-59
2021/11/13 06:16:49;;;;;;;37.88;30.98;;;;;;;15.13;28.54;94924.56;5070803;28;20059;-60
2021/11/13 06:19:16;;;;;;;44.97;33.38;;;;;;;15.08;28.76;94928.84;5073569;28;20440;-58
2021/11/13 06:21:43;;;;;;;47.28;34.80;;;;;;;15.12;28.45;94934.31;5072541;28;20055;-63
2021/11/13 06:24:10;;;;;;;42.25;29.95;;;;;;;15.47;27.81;94923.97;5077089;28;20048;-62
2021/11/13 06:26:38;;;;;;;38.30;27.20;;;;;;;15.54;28.31;94929.56;5060603;28;20045;-58
2021/11/13 06:29:05;;;;;;;37.08;25.77;;;;;;;15.68;27.78;94925.81;5064694;28;20060;-60
2021/11/13 06:31:33;;;;;;;36.30;26.88;;;;;;;16.14;27.44;94934.34;5061697;28;20047;-63
2021/11/13 06:34:00;;;;;;;35.88;26.20;;;;;;;16.06;27.66;94942.97;5063830;28;20056;-61
2021/11/13 06:36:27;;;;;;;34.75;27.33;;;;;;;16.17;27.70;94931.09;5063044;28;20344;-64
2021/11/13 06:38:54;;;;;;;35.38;27.67;;;;;;;15.98;28.20;94934.75;5063425;28;20045;-64
2021/11/13 06:41:29;;;;;;;37.47;28.00;;;;;;;15.93;27.75;94931.47;5062049;28;20076;-58
2021/11/13 06:43:58;;;;;;;40.85;28.17;;;;;;;16.06;28.11;94920.03;5057956;28;20052;-56
2021/11/13 06:46:25;;;;;;;40.22;27.48;;;;;;;16.55;27.49;94929.41;5048554;28;20061;-59
2021/11/13 06:48:53;;;;;;;39.00;27.65;;;;;;;16.83;27.25;94931.78;5069168;28;20041;-58
2021/11/13 06:51:21;;;;;;;39.50;29.90;;;;;;;17.22;26.64;94931.59;5035675;28;20056;-59
2021/11/13 06:53:49;;;;;;;43.20;29.05;;;;;;;16.59;27.21;94927.72;5072862;28;20040;-54
2021/11/13 06:56:16;;;;;;;37.03;29.00;;;;;;;17.08;26.74;94938.13;5063147;28;20160;-63
2021/11/13 06:58:47;;;;;;;49.70;29.83;;;;;;;17.14;26.52;94937.66;5088039;28;20051;-63
2021/11/13 07:01:15;;;;;;;50.47;32.30;;;;;;;16.83;27.29;94942.34;5093341;28;20044;-62
2021/11/13 07:03:42;;;;;;;42.28;31.85;;;;;;;16.57;27.25;94934.38;5086878;28;20059;-64
2021/11/13 07:06:09;;;;;;;50.13;35.80;;;;;;;16.77;27.28;94938.31;5072037;28;20059;-57
2021/11/13 07:08:37;;;;;;;47.70;30.75;;;;;;;16.77;27.12;94943.59;5073168;28;20456;-62
2021/11/13 07:11:04;;;;;;;44.35;33.97;;;;;;;16.61;27.61;94930.81;5064605;28;20436;-63
2021/11/13 07:13:31;;;;;;;44.20;31.73;;;;;;;16.55;27.46;94941.84;5065886;28;20081;-63
2021/11/13 07:15:59;;;;;;;43.00;32.03;;;;;;;16.91;27.45;94923.06;5050642;28;20052;-65
2021/11/13 07:18:26;;;;;;;40.90;30.00;;;;;;;17.28;26.54;94929.56;5072477;28;20044;-63
2021/11/13 07:20:56;;;;;;;44.50;32.78;;;;;;;17.67;26.83;94928.53;5060268;28;20443;-60
2021/11/13 07:23:24;;;;;;;54.83;39.63;;;;;;;17.27;27.01;94934.06;5055424;28;20052;-63
2021/11/13 07:25:52;;;;;;;55.75;40.55;;;;;;;17.27;27.56;94939.34;5060690;28;20135;-60
2021/11/13 07:28:32;;;;;;;56.92;42.90;;;;;;;17.33;27.31;94928.63;5057258;28;20132;-63
2021/11/13 07:31:00;;;;;;;52.92;43.13;;;;;;;17.70;27.06;94922.63;5059285;28;20048;-62
2021/11/13 07:33:27;;;;;;;64.68;47.05;;;;;;;17.79;26.76;94931.31;5061773;28;20564;-70
2021/11/13 07:35:54;;;;;;;61.53;47.80;;;;;;;17.92;25.94;94934.03;5056045;28;20064;-70
2021/11/13 07:38:21;;;;;;;67.50;52.08;;;;;;;17.99;26.39;94935.13;5057723;28;20044;-68
2021/11/13 07:40:48;;;;;;;60.50;50.70;;;;;;;17.80;26.08;94932.84;5065154;28;20043;-61
2021/11/13 07:43:15;;;;;;;71.00;51.53;;;;;;;18.15;26.29;94937.97;5065425;28;20040;-58
2021/11/13 07:45:43;;;;;;;68.03;52.45;;;;;;;17.76;26.39;94934.59;5041940;28;20065;-60
2021/11/13 07:48:10;;;;;;;61.08;48.95;;;;;;;17.82;26.04;94929.88;5043208;28;20079;-58
2021/11/13 07:50:38;;;;;;;58.33;48.72;;;;;;;17.59;25.48;94931.97;5047868;28;20037;-61
2021/11/13 07:53:09;;;;;;;65.97;51.20;;;;;;;18.09;25.58;94928.66;5055392;28;20084;-65
2021/11/13 07:55:37;;;;;;;75.30;52.50;;;;;;;18.13;24.74;94934.88;5056144;28;20036;-62
2021/11/13 07:58:05;;;;;;;67.13;51.95;;;;;;;18.19;25.38;94933.59;5055475;28;20056;-64
2021/11/13 08:00:33;;;;;;;59.97;49.28;;;;;;;18.17;24.84;94936.56;5055796;28;20056;-64
2021/11/13 08:03:00;;;;;;;61.50;47.75;;;;;;;18.71;24.85;94938.56;5056739;28;20047;-62
2021/11/13 08:05:42;;;;;;;40.15;33.85;;;;;;;19.10;22.63;94932.03;5075821;28;20044;-57
2021/11/13 08:08:10;;;;;;;43.20;33.08;;;;;;;18.57;23.27;94938.03;5043662;28;20056;-48
2021/11/13 08:10:46;;;;;;;35.97;28.63;;;;;;;18.97;22.80;94923.25;5055401;28;20041;-54
2021/11/13 08:13:19;;;;;;;39.38;30.33;;;;;;;19.28;22.42;94925.47;5055480;28;20060;-52
2021/11/13 08:15:47;;;;;;;41.53;31.10;;;;;;;19.64;23.03;94931.97;5050180;28;20049;-60
2021/11/13 08:18:16;;;;;;;38.83;32.03;;;;;;;19.29;23.37;94931.56;5037273;28;20056;-54
2021/11/13 08:20:43;;;;;;;42.08;30.52;;;;;;;19.05;23.10;94933.00;5074810;28;20051;-59
2021/11/13 08:23:11;;;;;;;40.35;29.88;;;;;;;19.37;22.00;94928.03;5075194;28;20443;-55
2021/11/13 08:25:40;;;;;;;36.55;28.30;;;;;;;19.01;23.07;94929.47;5075316;28;20045;-55
2021/11/13 08:28:07;;;;;;;33.72;27.90;;;;;;;20.01;22.69;94932.78;5074923;28;20048;-54
2021/11/13 08:30:34;;;;;;;34.00;28.60;;;;;;;20.00;21.77;94926.69;5054010;28;20042;-59
2021/11/13 08:33:03;;;;;;;33.10;27.48;;;;;;;19.82;21.52;94937.88;5053187;28;20045;-64
2021/11/13 08:35:30;;;;;;;32.30;26.30;;;;;;;20.64;20.73;94930.53;5036227;28;20049;-53
2021/11/13 08:37:58;;;;;;;33.90;26.75;;;;;;;20.59;20.91;94928.13;5054743;28;20049;-57
2021/11/13 08:40:25;;;;;;;29.70;24.23;;;;;;;20.53;20.60;94921.47;5051477;28;20049;-52
2021/11/13 08:42:53;;;;;;;32.65;25.15;;;;;;;20.81;21.11;94919.63;5054944;28;20451;-54
2021/11/13 08:45:20;;;;;;;39.53;26.20;;;;;;;21.51;20.60;94925.34;5060062;28;20045;-56
2021/11/13 08:47:47;;;;;;;31.13;24.63;;;;;;;20.75;21.20;94920.97;5073901;28;20056;-57
2021/11/13 08:50:19;;;;;;;31.58;24.95;;;;;;;20.62;20.75;94916.81;5074160;28;20041;-58
2021/11/13 08:52:49;;;;;;;33.55;25.38;;;;;;;21.08;20.30;94912.00;5066550;28;20056;-57
2021/11/13 08:55:17;;;;;;;30.08;23.55;;;;;;;21.06;20.33;94914.22;5054856;28;20061;-57
2021/11/13 08:57:45;;;;;;;31.58;25.58;;;;;;;21.83;19.73;94904.81;5058738;28;20052;-58
2021/11/13 09:00:21;;;;;;;31.45;24.42;;;;;;;20.82;20.95;94907.91;5066825;28;20056;-53
2021/11/13 09:02:48;;;;;;;34.90;25.25;;;;;;;21.14;20.96;94897.38;5053969;28;20055;-56
2021/11/13 09:05:15;;;;;;;32.38;23.40;;;;;;;20.67;20.88;94900.66;5054616;28;20044;-56
2021/11/13 09:07:42;;;;;;;23.95;21.40;;;;;;;20.94;21.20;94902.53;5057936;28;20052;-57
2021/11/13 09:10:10;;;;;;;25.27;22.27;;;;;;;20.94;20.39;94896.47;5074440;28;20043;-58
2021/11/13 09:12:39;;;;;;;23.88;21.05;;;;;;;20.71;20.45;94890.88;5073559;28;20067;-56
2021/11/13 09:15:11;;;;;;;28.10;22.35;;;;;;;21.19;19.60;94891.81;5065295;28;20047;-54
2021/11/13 09:17:39;;;;;;;24.73;20.90;;;;;;;22.62;18.25;94891.38;5063186;28;20048;-59
2021/11/13 09:20:07;;;;;;;27.65;21.30;;;;;;;22.39;18.94;94887.88;5064473;28;20049;-56
2021/11/13 09:22:36;;;;;;;23.38;19.27;;;;;;;22.33;18.11;94889.25;5074367;28;20052;-56
2021/11/13 09:25:08;;;;;;;23.60;19.30;;;;;;;21.96;20.18;94881.56;5073391;28;20470;-55
2021/11/13 09:27:40;;;;;;;25.45;21.05;;;;;;;22.05;18.98;94874.19;5074309;28;20374;-58
2021/11/13 09:30:11;;;;;;;24.27;18.58;;;;;;;21.88;18.56;94874.53;5073838;28;20418;-57
2021/11/13 09:32:38;;;;;;;21.80;18.85;;;;;;;22.44;18.84;94874.28;5073575;28;20056;-57
2021/11/13 09:35:05;;;;;;;32.30;27.67;;;;;;;22.03;19.49;94876.41;5074021;28;20040;-58
2021/11/13 09:37:33;;;;;;;23.23;18.95;;;;;;;21.88;19.76;94868.44;5073957;28;20467;-60
2021/11/13 09:40:00;;;;;;;28.73;20.33;;;;;;;22.03;18.66;94865.75;5064194;28;20067;-58
2021/11/13 09:42:27;;;;;;;24.75;19.48;;;;;;;22.17;18.85;94869.88;5093323;28;20043;-56
2021/11/13 09:44:54;;;;;;;26.35;18.83;;;;;;;22.19;18.23;94862.31;5052951;28;20057;-57
2021/11/13 09:47:21;;;;;;;32.30;18.58;;;;;;;21.78;18.92;94854.53;5073997;28;20070;-60
2021/11/13 09:49:49;;;;;;;24.27;18.95;;;;;;;21.81;19.34;94847.75;5073900;28;20402;-55
2021/11/13 09:52:17;;;;;;;24.33;19.10;;;;;;;22.34;18.52;94854.28;5064059;28;20052;-60
2021/11/13 09:54:44;;;;;;;24.67;18.40;;;;;;;22.62;17.85;94848.75;5062241;28;20048;-59
2021/11/13 09:57:11;;;;;;;22.20;17.63;;;;;;;22.72;17.65;94842.88;5093230;28;20477;-59
2021/11/13 09:59:39;;;;;;;20.58;16.85;;;;;;;23.12;17.30;94833.72;5077691;28;20056;-61
2021/11/13 10:02:06;;;;;;;24.70;17.67;;;;;;;23.43;17.58;94837.31;5053476;28;20052;-58
2021/11/13 10:04:33;;;;;;;23.02;17.30;;;;;;;23.29;16.96;94838.63;5045622;28;20127;-58
2021/11/13 10:07:00;;;;;;;23.38;17.33;;;;;;;23.59;16.77;94846.00;5073462;28;20044;-55
2021/11/13 10:09:27;;;;;;;24.80;17.63;;;;;;;23.46;17.31;94824.03;5073871;28;20359;-57
2021/11/13 10:11:54;;;;;;;22.02;17.27;;;;;;;23.72;16.77;94822.56;5073584;28;20548;-58
2021/11/13 10:14:33;;;;;;;25.42;17.02;;;;;;;23.68;16.86;94817.16;5068986;28;20348;-61
2021/11/13 10:17:01;;;;;;;22.67;18.60;;;;;;;23.55;16.79;94810.44;5075655;28;20056;-59
2021/11/13 10:19:29;;;;;;;21.48;18.33;;;;;;;23.96;16.39;94816.81;5073629;28;20040;-57
2021/11/13 10:21:58;;;;;;;20.63;18.30;;;;;;;24.26;16.90;94809.59;5055374;28;20048;-55
2021/11/13 10:24:28;;;;;;;26.38;18.60;;;;;;;23.81;16.57;94801.72;5058152;28;20040;-62
2021/11/13 10:27:04;;;;;;;26.77;18.30;;;;;;;23.86;16.78;94794.16;5072207;28;20045;-59
2021/11/13 10:29:35;;;;;;;23.20;19.75;;;;;;;23.90;17.16;94791.53;5073688;28;20044;-60
2021/11/13 10:32:06;;;;;;;25.02;20.02;;;;;;;24.18;17.44;94794.59;5065020;28;20040;-59
2021/11/13 10:34:38;;;;;;;22.95;20.20;;;;;;;24.15;16.13;94797.22;5073333;28;20340;-58
2021/11/13 10:37:06;;;;;;;;;;;;;;;25.08;15.89;94786.50;5059393;28;20053;-59
2021/11/13 10:39:38;;;;;;;26.33;20.35;;;;;;;23.90;16.39;94792.31;5053540;28;19912;-56
2021/11/13 10:42:18;;;;;;;27.58;20.98;;;;;;;24.13;15.71;94789.56;5053938;28;20057;-62
2021/11/13 10:44:59;;;;;;;22.20;18.83;;;;;;;24.58;16.69;94783.28;5058715;28;20049;-62
2021/11/13 10:47:34;;;;;;;24.17;21.33;;;;;;;24.77;16.42;94776.25;5056261;28;20455;-62
2021/11/13 10:50:18;;;;;;;27.52;21.50;;;;;;;25.35;15.04;94773.00;5056979;28;20049;-58
2021/11/13 10:53:12;;;;;;;26.15;22.88;;;;;;;25.07;15.46;94774.28;5057107;28;20341;-59
2021/11/13 10:56:20;;;;;;;29.23;23.17;;;;;;;24.73;16.64;94773.53;5069396;28;20040;-61
2021/11/13 10:59:01;;;;;;;28.52;23.27;;;;;;;25.08;16.43;94778.50;5076240;28;20048;-60
2021/11/13 11:01:37;;;;;;;23.67;21.17;;;;;;;25.28;15.21;94770.25;5076605;28;20052;-59
2021/11/13 11:04:14;;;;;;;23.50;20.85;;;;;;;24.77;16.51;94768.22;5075700;28;20454;-58
2021/11/13 11:06:45;;;;;;;24.15;21.55;;;;;;;25.17;15.39;94770.91;5076683;28;20048;-62
2021/11/13 11:09:31;;;;;;;32.25;21.27;;;;;;;25.12;15.83;94768.59;5076732;28;20040;-63
2021/11/13 11:12:06;;;;;;;24.35;21.33;;;;;;;25.16;15.46;94764.03;5077039;28;20116;-65
2021/11/13 11:14:33;;;;;;;29.15;20.48;;;;;;;25.09;14.74;94758.63;5068800;28;20052;-64
2021/11/13 11:17:09;;;;;;;23.02;19.23;;;;;;;25.38;14.56;94751.59;5076662;28;20091;-71
2021/11/13 11:19:37;;;;;;;21.42;18.40;;;;;;;25.29;14.57;94761.88;5058879;28;20041;-61
2021/11/13 11:22:07;;;;;;;22.05;17.20;;;;;;;25.55;14.34;94746.75;5076665;28;20040;-58
2021/11/13 11:24:34;;;;;;;20.40;18.15;;;;;;;24.85;14.93;94743.84;5075960;28;20052;-59